createdAt,value
2019-04-12T00:01:47.145Z,99.30
2019-04-12T00:04:31.571Z,99.10
2019-04-12T00:07:10.465Z,99.90
2019-04-12T00:09:51.008Z,99.90
2019-04-12T00:12:31.819Z,99.90
2019-04-12T00:15:13.081Z,99.90
2019-04-12T00:17:53.646Z,99.90
2019-04-12T00:20:34.544Z,99.90
2019-04-12T00:23:16.093Z,99.90
2019-04-12T00:25:56.808Z,99.90
2019-04-12T00:28:37.747Z,99.90
2019-04-12T00:31:22.013Z,99.90
2019-04-12T00:33:52.517Z,99.90
2019-04-12T00:36:38.659Z,99.90
2019-04-12T00:39:29.499Z,99.90
2019-04-12T00:42:16.435Z,99.90
2019-04-12T00:44:45.231Z,99.90
2019-04-12T00:50:12.101Z,99.90
2019-04-12T00:53:00.444Z,99.90
2019-04-12T00:55:48.984Z,99.90
2019-04-12T00:58:38.199Z,99.90
2019-04-12T01:01:41.088Z,99.90
2019-04-12T01:04:26.393Z,99.90
2019-04-12T01:07:07.697Z,99.90
2019-04-12T01:09:52.987Z,99.90
2019-04-12T01:12:31.284Z,99.90
2019-04-12T01:15:00.030Z,99.90
2019-04-12T01:17:48.035Z,99.90
2019-04-12T01:20:37.258Z,99.90
2019-04-12T01:23:46.587Z,99.90
2019-04-12T01:26:34.579Z,99.90
2019-04-12T01:29:22.605Z,99.90
2019-04-12T01:32:10.592Z,99.90
2019-04-12T01:34:58.568Z,99.90
2019-04-12T01:37:46.944Z,99.90
2019-04-12T01:40:34.933Z,99.90
2019-04-12T01:43:23.032Z,99.90
2019-04-12T01:46:11.005Z,99.90
2019-04-12T01:48:59.001Z,99.90
2019-04-12T01:51:47.081Z,99.90
2019-04-12T01:54:35.067Z,99.90
2019-04-12T01:57:23.056Z,99.90
2019-04-12T02:00:11.227Z,99.90
2019-04-12T02:02:52.124Z,99.90
2019-04-12T02:05:32.930Z,99.90
2019-04-12T02:08:13.930Z,99.90
2019-04-12T02:10:55.086Z,99.90
2019-04-12T02:13:35.465Z,99.90
2019-04-12T02:16:16.054Z,99.90
2019-04-12T02:18:56.833Z,99.90
2019-04-12T02:21:37.495Z,99.90
2019-04-12T02:24:18.625Z,99.90
2019-04-12T02:26:58.977Z,99.90
2019-04-12T02:29:39.769Z,99.90
2019-04-12T02:32:39.773Z,99.90
2019-04-12T02:35:39.999Z,99.90
2019-04-12T02:38:21.045Z,99.90
2019-04-12T02:41:01.872Z,99.90
2019-04-12T02:43:42.601Z,99.90
2019-04-12T02:46:28.560Z,99.90
2019-04-12T02:49:13.840Z,99.90
2019-04-12T02:52:14.068Z,99.90
2019-04-12T02:55:14.357Z,99.90
2019-04-12T03:01:06.078Z,99.90
2019-04-12T03:03:35.017Z,99.90
2019-04-12T03:06:23.176Z,99.90
2019-04-12T03:09:11.934Z,99.90
2019-04-12T03:12:20.754Z,99.90
2019-04-12T03:15:29.365Z,99.90
2019-04-12T03:18:17.380Z,99.90
2019-04-12T03:20:47.004Z,99.90
2019-04-12T03:23:35.291Z,99.90
2019-04-12T03:26:04.387Z,99.90
2019-04-12T03:29:00.316Z,99.90
2019-04-12T03:35:07.707Z,99.90
2019-04-12T03:37:55.804Z,99.90
2019-04-12T03:40:43.811Z,99.90
2019-04-12T03:43:32.099Z,99.90
2019-04-12T03:46:20.311Z,99.90
2019-04-12T03:49:09.185Z,99.90
2019-04-12T03:51:57.287Z,99.90
2019-04-12T03:54:45.334Z,99.90
2019-04-12T03:57:33.505Z,99.90
2019-04-12T04:00:24.958Z,99.90
2019-04-12T04:03:05.010Z,99.90
2019-04-12T04:05:46.371Z,99.90
2019-04-12T04:08:27.191Z,99.90
2019-04-12T04:11:07.942Z,99.90
2019-04-12T04:13:48.773Z,99.90
2019-04-12T04:16:30.357Z,99.90
2019-04-12T04:19:11.495Z,99.90
2019-04-12T04:21:53.733Z,99.90
2019-04-12T04:24:36.221Z,99.90
2019-04-12T04:30:36.833Z,99.90
2019-04-12T04:33:17.343Z,99.90
2019-04-12T04:35:58.025Z,99.90
2019-04-12T04:38:38.968Z,99.90
2019-04-12T04:41:19.861Z,99.90
2019-04-12T04:44:01.129Z,99.90
2019-04-12T04:46:41.601Z,99.90
2019-04-12T04:49:23.237Z,99.90
2019-04-12T04:52:03.808Z,99.90
2019-04-12T04:54:44.552Z,99.90
2019-04-12T04:57:25.614Z,99.90
2019-04-12T05:00:06.842Z,99.90
2019-04-12T05:02:47.528Z,99.90
2019-04-12T05:05:28.490Z,99.90
2019-04-12T05:08:09.060Z,99.90
2019-04-12T05:10:49.739Z,99.90
2019-04-12T05:13:30.436Z,99.90
2019-04-12T05:16:11.075Z,99.90
2019-04-12T05:18:52.026Z,99.90
2019-04-12T05:21:33.635Z,99.90
2019-04-12T05:24:14.308Z,99.90
2019-04-12T05:26:55.470Z,99.90
2019-04-12T05:29:36.100Z,99.90
2019-04-12T05:32:16.894Z,99.90
2019-04-12T05:34:57.246Z,99.90
2019-04-12T05:37:38.008Z,99.90
2019-04-12T05:40:18.571Z,99.90
2019-04-12T05:42:59.336Z,99.90
2019-04-12T05:45:58.924Z,99.90
2019-04-12T05:51:38.861Z,99.90
2019-04-12T05:54:19.437Z,99.90
2019-04-12T05:57:00.111Z,99.90
2019-04-12T05:59:40.989Z,99.90
2019-04-12T06:05:24.377Z,99.90
2019-04-12T06:08:04.986Z,99.90
2019-04-12T06:10:45.988Z,99.90
2019-04-12T06:13:26.929Z,99.90
2019-04-12T06:16:07.444Z,99.90
2019-04-12T06:18:48.039Z,99.90
2019-04-12T06:24:30.231Z,99.90
2019-04-12T06:27:19.428Z,99.90
2019-04-12T06:30:00.536Z,99.90
2019-04-12T06:32:29.360Z,99.90
2019-04-12T06:35:17.513Z,99.90
2019-04-12T06:38:05.484Z,99.90
2019-04-12T06:40:53.877Z,99.90
2019-04-12T06:43:42.094Z,99.90
2019-04-12T06:46:30.506Z,99.90
2019-04-12T06:49:18.768Z,99.60
2019-04-12T06:52:06.734Z,99.60
2019-04-12T06:57:49.536Z,99.50
2019-04-12T07:00:56.753Z,98.80
2019-04-12T07:03:57.281Z,98.10
2019-04-12T07:06:41.535Z,98.50
2019-04-12T07:09:22.545Z,99.20
2019-04-12T07:12:03.155Z,98.30
2019-04-12T07:14:31.953Z,97.10
2019-04-12T07:17:19.915Z,97.20
2019-04-12T07:20:07.958Z,97.40
2019-04-12T07:22:56.108Z,94.80
2019-04-12T07:25:44.076Z,90.80
2019-04-12T07:28:32.075Z,79.70
2019-04-12T07:31:20.260Z,64.40
2019-04-12T07:34:08.240Z,59.20
2019-04-12T07:36:56.585Z,60.30
2019-04-12T07:39:44.557Z,56.70
2019-04-12T07:42:32.579Z,58.40
2019-04-12T07:45:20.536Z,58.40
2019-04-12T07:48:08.503Z,59.10
2019-04-12T07:50:58.171Z,57.30
2019-04-12T07:54:05.234Z,56.20
2019-04-12T07:59:52.336Z,56.30
2019-04-12T08:02:51.687Z,56.30
2019-04-12T08:08:43.704Z,55.20
2019-04-12T08:11:24.084Z,57.70
2019-04-12T08:14:04.716Z,58.40
2019-04-12T08:16:45.268Z,57.10
2019-04-12T08:19:25.948Z,58.60
2019-04-12T08:22:07.221Z,57.50
2019-04-12T08:24:48.029Z,55.50
2019-04-12T08:27:29.111Z,54.10
2019-04-12T08:30:10.160Z,53.00
2019-04-12T08:32:50.759Z,55.30
2019-04-12T08:35:31.385Z,55.30
2019-04-12T08:38:12.224Z,56.60
2019-04-12T08:40:52.813Z,56.80
2019-04-12T08:43:33.499Z,54.80
2019-04-12T08:46:14.014Z,56.30
2019-04-12T08:48:55.332Z,58.70
2019-04-12T08:51:36.055Z,54.70
2019-04-12T08:54:17.221Z,56.20
2019-04-12T08:56:58.102Z,55.90
2019-04-12T08:59:39.008Z,58.00
2019-04-12T09:02:19.720Z,60.30
2019-04-12T09:05:00.512Z,61.20
2019-04-12T09:07:41.241Z,64.80
2019-04-12T09:10:21.734Z,59.50
2019-04-12T09:13:02.661Z,59.80
2019-04-12T09:15:31.549Z,57.80
2019-04-12T09:18:19.637Z,57.50
2019-04-12T09:21:26.724Z,60.00
2019-04-12T09:27:16.151Z,58.60
2019-04-12T09:32:59.556Z,56.00
2019-04-12T09:35:47.517Z,55.80
2019-04-12T09:38:35.480Z,58.60
2019-04-12T09:41:23.904Z,55.50
2019-04-12T09:44:11.977Z,57.20
2019-04-12T09:47:00.272Z,56.40
2019-04-12T09:49:48.515Z,56.70
2019-04-12T09:52:36.527Z,56.40
2019-04-12T09:55:24.819Z,55.70
2019-04-12T09:58:13.252Z,56.00
2019-04-12T10:01:01.366Z,55.50
2019-04-12T10:03:42.269Z,56.70
2019-04-12T10:06:23.601Z,56.60
2019-04-12T10:09:04.648Z,57.60
2019-04-12T10:11:46.036Z,56.90
2019-04-12T10:14:26.977Z,55.60
2019-04-12T10:17:07.572Z,58.60
2019-04-12T10:19:48.393Z,57.70
2019-04-12T10:22:29.213Z,56.30
2019-04-12T10:25:10.026Z,54.30
2019-04-12T10:27:54.420Z,53.80
2019-04-12T10:33:36.423Z,54.60
2019-04-12T10:36:17.416Z,56.10
2019-04-12T10:48:20.848Z,57.50
2019-04-12T10:51:27.903Z,59.10
2019-04-12T10:54:34.937Z,58.70
2019-04-12T11:03:06.540Z,58.70
2019-04-12T11:05:47.600Z,57.90
2019-04-12T11:08:28.540Z,56.40
2019-04-12T11:11:09.647Z,56.30
2019-04-12T11:13:50.593Z,56.20
2019-04-12T11:16:31.624Z,57.50
2019-04-12T11:19:20.091Z,56.40
2019-04-12T11:22:01.067Z,56.20
2019-04-12T11:24:41.641Z,56.70
2019-04-12T11:27:22.939Z,56.00
2019-04-12T11:30:03.741Z,56.10
2019-04-12T11:32:44.570Z,58.40
2019-04-12T11:35:25.334Z,57.10
2019-04-12T11:38:06.251Z,57.10
2019-04-12T11:40:46.960Z,58.80
2019-04-12T11:43:27.688Z,59.40
2019-04-12T11:46:08.069Z,60.10
2019-04-12T11:48:48.990Z,58.80
2019-04-12T11:51:30.493Z,56.90
2019-04-12T11:54:11.187Z,57.20
2019-04-12T11:56:51.833Z,57.70
2019-04-12T11:59:32.619Z,56.90
2019-04-12T12:02:32.507Z,58.60
2019-04-12T12:05:32.604Z,59.50
2019-04-12T12:08:32.117Z,59.50
2019-04-12T12:11:31.681Z,61.10
2019-04-12T12:14:31.139Z,58.90
2019-04-12T12:17:30.526Z,59.40
2019-04-12T12:20:11.260Z,59.40
2019-04-12T12:22:52.095Z,57.80
2019-04-12T12:25:33.190Z,61.20
2019-04-12T12:28:13.569Z,60.90
2019-04-12T12:30:54.185Z,60.10
2019-04-12T12:33:35.012Z,61.70
2019-04-12T12:36:15.667Z,60.20
2019-04-12T12:38:56.391Z,63.60
2019-04-12T12:41:37.012Z,63.20
2019-04-12T12:44:17.818Z,61.70
2019-04-12T12:46:58.517Z,64.00
2019-04-12T12:49:39.474Z,62.50
2019-04-12T12:52:21.986Z,62.50
2019-04-12T12:55:03.308Z,64.60
2019-04-12T12:57:44.084Z,63.30
2019-04-12T13:00:24.913Z,62.20
2019-04-12T13:03:05.612Z,64.80
2019-04-12T13:05:46.444Z,63.80
2019-04-12T13:08:27.450Z,61.20
2019-04-12T13:11:08.192Z,61.10
2019-04-12T13:13:48.881Z,62.40
2019-04-12T13:16:29.710Z,62.30
2019-04-12T13:19:11.466Z,63.10
2019-04-12T13:21:52.302Z,62.20
2019-04-12T13:24:33.124Z,63.30
2019-04-12T13:27:13.658Z,65.40
2019-04-12T13:30:06.249Z,63.80
2019-04-12T13:32:58.267Z,64.00
2019-04-12T13:38:57.983Z,64.70
2019-04-12T13:41:39.041Z,66.50
2019-04-12T13:44:19.444Z,65.90
2019-04-12T13:47:00.265Z,63.70
2019-04-12T13:49:41.153Z,64.70
2019-04-12T13:52:22.070Z,64.40
2019-04-12T13:55:02.902Z,66.70
2019-04-12T13:57:44.088Z,66.00
2019-04-12T14:00:24.893Z,67.50
2019-04-12T14:03:05.784Z,65.50
2019-04-12T14:05:46.381Z,64.80
2019-04-12T14:08:26.947Z,65.90
2019-04-12T14:11:07.881Z,68.70
2019-04-12T14:13:48.597Z,66.60
2019-04-12T14:16:29.710Z,66.20
2019-04-12T14:19:10.336Z,66.60
2019-04-12T14:21:51.609Z,66.20
2019-04-12T14:24:32.461Z,68.30
2019-04-12T14:27:12.869Z,68.20
2019-04-12T14:29:56.327Z,67.40
2019-04-12T14:32:42.191Z,67.10
2019-04-12T14:35:42.092Z,68.90
2019-04-12T14:38:22.840Z,69.30
2019-04-12T14:41:03.525Z,68.00
2019-04-12T14:46:59.415Z,67.20
2019-04-12T14:49:40.549Z,71.40
2019-04-12T14:52:21.192Z,68.60
2019-04-12T14:55:01.680Z,67.60
2019-04-12T14:57:42.325Z,71.40
2019-04-12T15:00:23.399Z,66.70
2019-04-12T15:03:04.578Z,68.10
2019-04-12T15:05:45.214Z,70.80
2019-04-12T15:08:26.161Z,67.00
2019-04-12T15:11:07.028Z,68.60
2019-04-12T15:13:47.840Z,67.80
2019-04-12T15:16:28.300Z,68.60
2019-04-12T15:19:08.799Z,71.30
2019-04-12T15:21:37.560Z,68.40
2019-04-12T15:24:25.556Z,69.30
2019-04-12T15:27:13.538Z,68.80
2019-04-12T15:30:01.564Z,73.60
2019-04-12T15:32:49.882Z,70.60
2019-04-12T15:35:37.887Z,69.10
2019-04-12T15:38:25.857Z,70.80
2019-04-12T15:41:13.844Z,69.80
2019-04-12T15:44:02.153Z,76.10
2019-04-12T15:46:50.146Z,72.20
2019-04-12T15:49:38.109Z,70.60
2019-04-12T15:52:26.079Z,71.20
2019-04-12T15:55:14.163Z,72.80
2019-04-12T15:58:02.137Z,73.20
2019-04-12T16:04:12.532Z,75.50
2019-04-12T16:06:53.525Z,77.50
2019-04-12T16:09:34.264Z,76.40
2019-04-12T16:12:15.222Z,74.30
2019-04-12T16:14:56.165Z,75.40
2019-04-12T16:17:36.913Z,75.40
2019-04-12T16:20:18.041Z,76.10
2019-04-12T16:22:58.952Z,75.40
2019-04-12T16:25:39.989Z,80.30
2019-04-12T16:34:33.770Z,79.20
2019-04-12T16:37:36.324Z,76.70
2019-04-12T16:40:17.073Z,77.00
2019-04-12T16:42:58.430Z,77.70
2019-04-12T16:45:39.417Z,81.40
2019-04-12T16:48:19.740Z,81.70
2019-04-12T16:51:00.480Z,78.20
2019-04-12T16:53:41.516Z,83.30
2019-04-12T16:56:21.940Z,78.30
2019-04-12T16:59:02.421Z,83.00
2019-04-12T17:01:43.316Z,78.30
2019-04-12T17:04:23.775Z,78.70
2019-04-12T17:07:04.456Z,79.10
2019-04-12T17:09:45.042Z,79.20
2019-04-12T17:12:25.753Z,83.00
2019-04-12T17:15:06.914Z,79.70
2019-04-12T17:17:47.528Z,80.20
2019-04-12T17:20:16.774Z,79.20
2019-04-12T17:23:04.780Z,82.20
2019-04-12T17:25:52.788Z,82.20
2019-04-12T17:28:40.752Z,81.20
2019-04-12T17:31:48.447Z,82.70
2019-04-12T17:37:21.295Z,83.40
2019-04-12T17:40:09.497Z,82.80
2019-04-12T17:42:58.600Z,82.90
2019-04-12T17:45:46.903Z,83.80
2019-04-12T17:48:53.944Z,85.50
2019-04-12T17:55:11.419Z,84.20
2019-04-12T18:04:11.612Z,88.10
2019-04-12T18:06:52.433Z,88.10
2019-04-12T18:09:33.223Z,88.20
2019-04-12T18:12:14.119Z,91.70
2019-04-12T18:14:56.119Z,90.10
2019-04-12T18:17:36.993Z,90.10
2019-04-12T18:20:17.920Z,88.50
2019-04-12T18:22:59.009Z,90.70
2019-04-12T18:25:39.561Z,90.20
2019-04-12T18:28:08.384Z,90.60
2019-04-12T18:30:56.398Z,90.00
2019-04-12T18:33:44.693Z,90.10
2019-04-12T18:36:32.817Z,90.40
2019-04-12T18:39:20.768Z,91.20
2019-04-12T18:45:02.867Z,91.50
2019-04-12T18:47:51.202Z,90.30
2019-04-12T18:50:39.288Z,90.60
2019-04-12T18:53:27.269Z,91.10
2019-04-12T18:56:15.252Z,92.70
2019-04-12T18:59:03.232Z,92.10
2019-04-12T19:01:43.854Z,93.20
2019-04-12T19:04:24.474Z,92.60
2019-04-12T19:07:05.942Z,91.90
2019-04-12T19:09:46.984Z,92.60
2019-04-12T19:12:27.627Z,92.70
2019-04-12T19:15:08.402Z,92.40
2019-04-12T19:17:49.009Z,92.70
2019-04-12T19:22:53.926Z,93.10
2019-04-12T19:25:41.988Z,93.80
2019-04-12T19:28:29.955Z,93.80
2019-04-12T19:34:37.551Z,94.50
2019-04-12T19:37:44.626Z,93.90
2019-04-12T19:43:31.127Z,93.60
2019-04-12T19:46:19.192Z,93.90
2019-04-12T19:49:07.493Z,96.40
2019-04-12T19:51:55.500Z,94.40
2019-04-12T19:54:43.577Z,94.80
2019-04-12T19:57:31.784Z,94.30
2019-04-12T20:00:20.139Z,93.50
2019-04-12T20:03:00.396Z,93.90
2019-04-12T20:05:41.072Z,93.00
2019-04-12T20:08:21.928Z,94.60
2019-04-12T20:11:02.437Z,93.40
2019-04-12T20:13:43.052Z,94.30
2019-04-12T20:16:24.127Z,94.60
2019-04-12T20:19:04.990Z,94.80
2019-04-12T20:21:45.903Z,96.20
2019-04-12T20:24:26.540Z,97.30
2019-04-12T20:27:07.583Z,97.50
2019-04-12T20:29:48.845Z,97.90
2019-04-12T20:32:30.149Z,99.00
2019-04-12T20:35:10.972Z,99.60
2019-04-12T20:37:51.734Z,99.90
2019-04-12T20:40:32.631Z,99.90
2019-04-12T20:43:13.309Z,99.90
2019-04-12T20:45:55.357Z,99.90
2019-04-12T20:48:35.988Z,99.90
2019-04-12T20:51:16.628Z,99.90
2019-04-12T20:53:57.723Z,99.90
2019-04-12T20:56:38.839Z,99.90
2019-04-12T20:59:19.262Z,99.90
2019-04-12T21:01:59.880Z,99.90
2019-04-12T21:04:40.376Z,99.90
2019-04-12T21:07:20.997Z,99.90
2019-04-12T21:10:01.752Z,99.90
2019-04-12T21:12:42.664Z,99.90
2019-04-12T21:15:23.190Z,99.90
2019-04-12T21:18:04.060Z,99.90
2019-04-12T21:20:44.819Z,99.90
2019-04-12T21:23:25.764Z,99.90
2019-04-12T21:26:07.005Z,99.90
2019-04-12T21:28:47.623Z,99.90
2019-04-12T21:31:28.325Z,99.90
2019-04-12T21:34:08.940Z,99.90
2019-04-12T21:36:49.512Z,99.90
2019-04-12T21:39:30.967Z,99.90
2019-04-12T21:42:11.795Z,99.90
2019-04-12T21:44:52.172Z,99.90
2019-04-12T21:47:33.062Z,99.90
2019-04-12T21:50:13.904Z,99.90
2019-04-12T21:52:54.800Z,99.90
2019-04-12T21:55:35.610Z,99.90
2019-04-12T21:58:16.344Z,99.90
2019-04-12T22:01:02.708Z,99.90
2019-04-12T22:03:44.712Z,99.90
2019-04-12T22:06:25.723Z,99.90
2019-04-12T22:09:06.869Z,99.90
2019-04-12T22:11:47.371Z,99.90
2019-04-12T22:14:28.038Z,99.90
2019-04-12T22:17:08.725Z,99.90
2019-04-12T22:19:52.842Z,99.90
2019-04-12T22:22:33.635Z,99.90
2019-04-12T22:25:14.066Z,99.90
2019-04-12T22:27:54.696Z,99.90
2019-04-12T22:30:35.234Z,99.90
2019-04-12T22:33:15.757Z,99.90
2019-04-12T22:35:56.266Z,99.90
2019-04-12T22:38:36.912Z,99.90
2019-04-12T22:41:17.612Z,99.90
2019-04-12T22:43:58.070Z,99.90
2019-04-12T22:46:27.565Z,99.90
2019-04-12T22:49:15.532Z,99.90
2019-04-12T22:52:03.624Z,99.90
2019-04-12T22:54:51.603Z,99.90
2019-04-12T22:57:39.568Z,99.90
2019-04-12T23:00:27.532Z,99.90
2019-04-12T23:03:09.004Z,99.90
2019-04-12T23:05:49.977Z,99.90
2019-04-12T23:08:30.625Z,99.90
2019-04-12T23:11:11.259Z,99.90
2019-04-12T23:13:51.928Z,99.90
2019-04-12T23:16:32.601Z,99.90
2019-04-12T23:19:13.237Z,99.90
2019-04-12T23:21:53.949Z,99.90
2019-04-12T23:27:33.140Z,99.90
2019-04-12T23:33:13.032Z,99.90
2019-04-12T23:35:53.828Z,99.90
2019-04-12T23:38:34.525Z,99.90
2019-04-12T23:41:16.146Z,99.90
2019-04-12T23:43:57.571Z,99.90
2019-04-12T23:46:38.017Z,99.90
2019-04-12T23:49:18.514Z,99.90
2019-04-12T23:51:59.382Z,99.90
2019-04-12T23:54:39.949Z,99.90
2019-04-12T23:57:20.708Z,99.90
